Time;durP1;ratioP1;P1;durP2;ratioP2;P2;SDS_P1;SDS_P2;PMS_P1;PMS_P2;Temp;Humidity;BMP_temperature;BMP_pressure;BME280_temperature;BME280_humidity;BME280_pressure;Samples;Min_cycle;Max_cycle;Signal;HPM_P1;HPM_P2
2021/12/03 00:01:25;;;;;;;9.88;4.15;;;;;;;;;;5062794;28;20078;-63
2021/12/03 00:03:51;;;;;;;12.82;4.35;;;;;;;;;;5083898;28;20024;-63
2021/12/03 00:06:17;;;;;;;12.02;4.70;;;;;;;;;;5082166;28;20039;-63
2021/12/03 00:08:43;;;;;;;11.20;4.63;;;;;;;;;;5080451;28;20503;-63
2021/12/03 00:11:11;;;;;;;15.98;4.93;;;;;;;;;;5088123;28;20035;-63
2021/12/03 00:13:38;;;;;;;6.07;3.53;;;;;;;;;;5071996;28;20052;-63
2021/12/03 00:16:04;;;;;;;22.50;3.30;;;;;;;;;;5079285;28;20024;-63
2021/12/03 00:18:31;;;;;;;9.20;3.00;;;;;;;;;;5080675;28;20036;-63
2021/12/03 00:21:00;;;;;;;14.13;3.40;;;;;;;;;;5086425;28;20081;-63
2021/12/03 00:23:28;;;;;;;6.75;3.17;;;;;;;;;;5074854;28;20224;-63
2021/12/03 00:25:54;;;;;;;6.18;2.97;;;;;;;;;;5086055;28;20107;-63
2021/12/03 00:28:20;;;;;;;7.05;2.88;;;;;;;;;;5080895;28;20122;-63
2021/12/03 00:30:47;;;;;;;7.28;3.22;;;;;;;;;;5083440;28;20024;-63
2021/12/03 00:33:13;;;;;;;7.47;2.88;;;;;;;;;;5091291;28;20034;-63
2021/12/03 00:35:39;;;;;;;8.93;2.63;;;;;;;;;;5071839;28;20060;-63
2021/12/03 00:38:06;;;;;;;8.02;3.45;;;;;;;;;;5079291;28;20040;-63
2021/12/03 00:40:33;;;;;;;9.23;2.47;;;;;;;;;;5080620;28;20558;-63
2021/12/03 00:43:00;;;;;;;8.65;2.72;;;;;;;;;;5086224;28;20098;-63
2021/12/03 00:45:27;;;;;;;8.77;4.18;;;;;;;;;;5074663;28;20477;-63
2021/12/03 00:47:53;;;;;;;8.38;2.75;;;;;;;;;;5086687;28;20024;-63
2021/12/03 00:50:20;;;;;;;7.78;2.50;;;;;;;;;;5080321;28;20024;-63
2021/12/03 00:52:47;;;;;;;8.27;2.60;;;;;;;;;;5079381;28;20041;-63
2021/12/03 00:55:13;;;;;;;4.15;2.22;;;;;;;;;;5088029;28;20032;-63
2021/12/03 00:57:40;;;;;;;6.53;2.53;;;;;;;;;;5074698;28;20517;-63
2021/12/03 01:00:07;;;;;;;10.90;2.53;;;;;;;;;;5084868;28;20016;-63
2021/12/03 01:02:33;;;;;;;7.93;2.42;;;;;;;;;;5081993;28;20024;-63
2021/12/03 01:05:00;;;;;;;7.68;2.20;;;;;;;;;;5077506;28;20388;-63
2021/12/03 01:07:26;;;;;;;10.15;2.10;;;;;;;;;;5087849;28;20484;-63
2021/12/03 01:09:52;;;;;;;10.10;2.15;;;;;;;;;;5076137;28;20045;-63
2021/12/03 01:12:18;;;;;;;10.75;2.03;;;;;;;;;;5082970;28;20029;-63
2021/12/03 01:14:44;;;;;;;11.38;2.33;;;;;;;;;;5083505;28;20032;-63
2021/12/03 01:17:10;;;;;;;6.72;2.22;;;;;;;;;;5075690;28;20041;-63
2021/12/03 01:19:37;;;;;;;8.73;2.42;;;;;;;;;;5087917;28;20048;-63
2021/12/03 01:22:04;;;;;;;7.03;2.15;;;;;;;;;;5077517;28;20032;-63
2021/12/03 01:24:30;;;;;;;5.10;2.13;;;;;;;;;;5081079;28;20052;-63
2021/12/03 01:26:56;;;;;;;5.90;2.42;;;;;;;;;;5084760;28;20032;-63
2021/12/03 01:29:23;;;;;;;11.93;3.85;;;;;;;;;;5074745;28;20028;-63
2021/12/03 01:31:51;;;;;;;12.75;3.03;;;;;;;;;;5094779;28;20036;-63
2021/12/03 01:34:18;;;;;;;9.15;2.63;;;;;;;;;;5087544;28;20028;-63
2021/12/03 01:36:44;;;;;;;12.98;2.40;;;;;;;;;;5086340;28;20062;-63
2021/12/03 01:39:12;;;;;;;6.20;2.08;;;;;;;;;;5079477;28;20029;-62
2021/12/03 01:41:38;;;;;;;6.57;1.90;;;;;;;;;;5091048;28;20032;-63
2021/12/03 01:44:04;;;;;;;7.47;1.70;;;;;;;;;;5080998;28;20504;-63
2021/12/03 01:46:31;;;;;;;10.25;2.08;;;;;;;;;;5084819;28;20017;-63
2021/12/03 01:48:57;;;;;;;7.38;1.83;;;;;;;;;;5086190;28;20035;-63
2021/12/03 01:51:24;;;;;;;4.88;2.17;;;;;;;;;;5085735;28;20599;-63
2021/12/03 01:53:50;;;;;;;4.95;1.80;;;;;;;;;;5078124;28;20553;-63
2021/12/03 01:56:17;;;;;;;3.53;1.80;;;;;;;;;;5087281;28;20032;-63
2021/12/03 01:58:44;;;;;;;7.55;2.45;;;;;;;;;;5085892;28;20032;-63
2021/12/03 02:01:17;;;;;;;4.88;1.70;;;;;;;;;;5079722;28;20102;-63
2021/12/03 02:03:44;;;;;;;10.38;2.85;;;;;;;;;;5090945;28;20040;-63
2021/12/03 02:06:11;;;;;;;9.70;2.63;;;;;;;;;;5080792;28;20062;-63
2021/12/03 02:08:37;;;;;;;7.20;1.92;;;;;;;;;;5083873;28;20032;-62
2021/12/03 02:11:05;;;;;;;5.38;2.05;;;;;;;;;;5088349;28;20028;-63
2021/12/03 02:13:31;;;;;;;5.82;2.25;;;;;;;;;;5077289;28;20037;-62
2021/12/03 02:15:57;;;;;;;8.48;2.20;;;;;;;;;;5090215;28;20016;-62
2021/12/03 02:18:23;;;;;;;3.75;2.05;;;;;;;;;;5082093;28;20032;-62
2021/12/03 02:20:51;;;;;;;6.45;2.13;;;;;;;;;;5082645;28;20029;-62
2021/12/03 02:23:18;;;;;;;6.28;2.40;;;;;;;;;;5089286;28;20441;-62
2021/12/03 02:25:44;;;;;;;7.88;2.20;;;;;;;;;;5077137;28;20021;-62
2021/12/03 02:28:11;;;;;;;12.02;2.92;;;;;;;;;;5088082;28;20025;-63
2021/12/03 02:30:37;;;;;;;11.10;1.98;;;;;;;;;;5083754;28;20020;-63
2021/12/03 02:33:04;;;;;;;7.63;2.42;;;;;;;;;;5093726;28;20548;-63
2021/12/03 02:35:30;;;;;;;6.25;2.85;;;;;;;;;;5077062;28;20045;-62
2021/12/03 02:37:57;;;;;;;8.45;1.55;;;;;;;;;;5089655;28;20031;-63
2021/12/03 02:40:23;;;;;;;3.13;1.55;;;;;;;;;;5063135;28;20503;-62
2021/12/03 02:42:50;;;;;;;10.52;1.63;;;;;;;;;;5082207;28;20081;-62
2021/12/03 02:45:17;;;;;;;5.55;1.67;;;;;;;;;;5089198;28;20031;-63
2021/12/03 02:47:44;;;;;;;7.78;1.95;;;;;;;;;;5076479;28;20035;-62
2021/12/03 02:50:11;;;;;;;9.00;1.75;;;;;;;;;;5088308;28;20028;-62
2021/12/03 02:52:37;;;;;;;5.63;1.30;;;;;;;;;;5082477;28;20036;-62
2021/12/03 02:55:04;;;;;;;11.07;1.63;;;;;;;;;;5080845;28;20060;-63
2021/12/03 02:57:30;;;;;;;10.27;1.77;;;;;;;;;;5089848;28;20039;-63
2021/12/03 02:59:56;;;;;;;4.82;1.50;;;;;;;;;;5076939;28;20042;-63
2021/12/03 03:02:22;;;;;;;7.93;1.60;;;;;;;;;;5086089;28;20074;-63
2021/12/03 03:04:49;;;;;;;6.50;1.60;;;;;;;;;;5084118;28;20020;-63
2021/12/03 03:07:15;;;;;;;9.55;2.17;;;;;;;;;;5078621;28;20033;-63
2021/12/03 03:09:45;;;;;;;7.93;2.17;;;;;;;;;;5089556;28;20467;-63
2021/12/03 03:12:11;;;;;;;12.15;2.25;;;;;;;;;;5078486;28;20032;-63
2021/12/03 03:14:43;;;;;;;7.78;1.65;;;;;;;;;;5084050;28;20017;-63
2021/12/03 03:17:09;;;;;;;4.63;1.58;;;;;;;;;;5086547;28;20149;-63
2021/12/03 03:19:35;;;;;;;3.40;1.50;;;;;;;;;;5076162;28;20120;-63
2021/12/03 03:22:02;;;;;;;5.75;1.65;;;;;;;;;;5089019;28;20048;-63
2021/12/03 03:24:28;;;;;;;7.70;1.60;;;;;;;;;;5080373;28;20027;-63
2021/12/03 03:26:54;;;;;;;10.60;1.95;;;;;;;;;;5081801;28;20036;-63
2021/12/03 03:29:21;;;;;;;5.82;1.95;;;;;;;;;;5087802;28;20064;-63
2021/12/03 03:31:47;;;;;;;8.02;1.60;;;;;;;;;;5086841;28;20036;-63
2021/12/03 03:34:13;;;;;;;7.78;1.45;;;;;;;;;;5087408;28;20016;-63
2021/12/03 03:36:44;;;;;;;5.93;1.60;;;;;;;;;;5081206;28;20074;-63
2021/12/03 03:39:12;;;;;;;11.73;1.65;;;;;;;;;;5079511;28;20036;-63
2021/12/03 03:41:38;;;;;;;7.43;2.40;;;;;;;;;;5089111;28;20404;-62
2021/12/03 03:44:05;;;;;;;12.02;1.75;;;;;;;;;;5076334;28;20032;-62
2021/12/03 03:46:31;;;;;;;15.25;2.03;;;;;;;;;;5085010;28;20013;-63
2021/12/03 03:48:57;;;;;;;13.00;2.10;;;;;;;;;;5082072;28;20028;-63
2021/12/03 03:51:24;;;;;;;15.02;1.80;;;;;;;;;;5083930;28;20024;-62
2021/12/03 03:53:50;;;;;;;6.75;1.60;;;;;;;;;;5080683;28;20118;-63
2021/12/03 03:56:16;;;;;;;4.82;1.52;;;;;;;;;;5081614;28;20020;-63
2021/12/03 03:58:42;;;;;;;12.07;1.60;;;;;;;;;;5069830;28;20115;-63
2021/12/03 04:01:10;;;;;;;11.27;2.20;;;;;;;;;;5089861;28;20055;-63
2021/12/03 04:03:36;;;;;;;7.95;1.60;;;;;;;;;;5087885;28;20122;-63
2021/12/03 04:06:03;;;;;;;7.15;1.50;;;;;;;;;;5083164;28;20016;-63
2021/12/03 04:08:29;;;;;;;8.52;1.85;;;;;;;;;;5089765;28;21370;-63
2021/12/03 04:11:00;;;;;;;4.05;1.60;;;;;;;;;;5089316;28;20028;-63
2021/12/03 04:13:27;;;;;;;4.50;1.52;;;;;;;;;;5090244;28;20039;-63
2021/12/03 04:15:53;;;;;;;6.43;3.00;;;;;;;;;;5086826;28;20024;-63
2021/12/03 04:18:19;;;;;;;4.32;1.33;;;;;;;;;;5087421;28;20047;-63
2021/12/03 04:20:46;;;;;;;6.18;1.58;;;;;;;;;;5087334;28;20020;-62
2021/12/03 04:23:17;;;;;;;7.20;1.40;;;;;;;;;;5086433;28;20384;-63
2021/12/03 04:25:43;;;;;;;5.03;1.30;;;;;;;;;;5085423;28;20016;-63
2021/12/03 04:28:09;;;;;;;5.25;1.40;;;;;;;;;;5089696;28;20020;-63
2021/12/03 04:30:36;;;;;;;3.35;1.20;;;;;;;;;;5090401;28;20430;-63
2021/12/03 04:33:02;;;;;;;3.42;1.05;;;;;;;;;;5087602;28;20012;-63
2021/12/03 04:35:29;;;;;;;4.88;1.25;;;;;;;;;;5083207;28;20122;-63
2021/12/03 04:37:56;;;;;;;1.05;0.93;;;;;;;;;;5084486;28;20035;-63
2021/12/03 04:40:23;;;;;;;1.92;0.90;;;;;;;;;;5083629;28;20027;-63
2021/12/03 04:42:49;;;;;;;4.38;1.17;;;;;;;;;;5089386;28;20028;-63
2021/12/03 04:45:18;;;;;;;3.78;0.85;;;;;;;;;;5070357;28;20575;-63
2021/12/03 04:47:45;;;;;;;4.32;0.90;;;;;;;;;;5087314;28;20024;-63
2021/12/03 04:50:12;;;;;;;2.05;1.17;;;;;;;;;;5084692;28;20029;-63
2021/12/03 04:52:38;;;;;;;2.28;0.75;;;;;;;;;;5086985;28;20036;-63
2021/12/03 04:55:05;;;;;;;4.85;0.88;;;;;;;;;;5085717;28;20076;-63
2021/12/03 04:57:31;;;;;;;1.60;0.88;;;;;;;;;;5085924;28;20428;-63
2021/12/03 04:59:57;;;;;;;3.35;0.68;;;;;;;;;;5087663;28;20032;-62
2021/12/03 05:02:25;;;;;;;1.30;0.80;;;;;;;;;;5088233;28;20021;-63
2021/12/03 05:04:54;;;;;;;2.50;0.70;;;;;;;;;;5090395;28;20036;-63
2021/12/03 05:10:05;;;;;;;2.90;1.02;;;;;;;;;;5087454;28;20100;-63
2021/12/03 05:12:31;;;;;;;2.38;0.80;;;;;;;;;;5091803;28;20412;-63
2021/12/03 05:14:57;;;;;;;3.20;0.60;;;;;;;;;;5092671;28;20059;-63
2021/12/03 05:17:24;;;;;;;0.90;0.60;;;;;;;;;;5092026;28;20114;-63
2021/12/03 05:19:50;;;;;;;2.60;0.70;;;;;;;;;;5094821;28;20059;-63
2021/12/03 05:22:16;;;;;;;1.95;0.60;;;;;;;;;;5078693;28;20024;-63
2021/12/03 05:24:45;;;;;;;0.40;0.40;;;;;;;;;;5088238;28;20035;-63
2021/12/03 05:27:12;;;;;;;0.55;0.30;;;;;;;;;;5086116;28;20020;-63
2021/12/03 05:29:38;;;;;;;0.50;0.43;;;;;;;;;;5080217;28;20470;-63
2021/12/03 05:32:05;;;;;;;1.20;0.52;;;;;;;;;;5092571;28;20032;-63
2021/12/03 05:34:31;;;;;;;1.05;0.60;;;;;;;;;;5089596;28;20025;-63
2021/12/03 05:36:57;;;;;;;0.40;0.38;;;;;;;;;;5083878;28;20516;-63
2021/12/03 05:39:23;;;;;;;0.68;0.40;;;;;;;;;;5082361;28;20068;-63
2021/12/03 05:41:49;;;;;;;1.75;0.50;;;;;;;;;;5091123;28;20327;-63
2021/12/03 05:44:15;;;;;;;1.20;0.30;;;;;;;;;;5077745;28;20065;-63
2021/12/03 05:46:41;;;;;;;0.80;0.30;;;;;;;;;;5087983;28;20118;-63
2021/12/03 05:49:08;;;;;;;1.50;0.73;;;;;;;;;;5092554;28;20020;-63
2021/12/03 05:51:34;;;;;;;0.43;0.32;;;;;;;;;;5094785;28;20035;-63
2021/12/03 05:54:00;;;;;;;0.63;0.40;;;;;;;;;;5094301;28;20040;-63
2021/12/03 05:56:26;;;;;;;0.70;0.30;;;;;;;;;;5094788;28;20024;-63
2021/12/03 05:58:52;;;;;;;1.35;0.45;;;;;;;;;;5094820;28;20020;-63
2021/12/03 06:01:19;;;;;;;0.20;0.20;;;;;;;;;;5094215;28;20028;-63
2021/12/03 06:03:47;;;;;;;1.80;0.25;;;;;;;;;;5094608;28;20559;-63
2021/12/03 06:06:13;;;;;;;0.20;0.20;;;;;;;;;;5094096;28;20013;-63
2021/12/03 06:08:39;;;;;;;1.75;0.50;;;;;;;;;;5094528;28;20055;-63
2021/12/03 06:11:05;;;;;;;1.35;0.50;;;;;;;;;;5094456;28;20023;-63
2021/12/03 06:13:32;;;;;;;0.50;0.40;;;;;;;;;;5093025;28;20070;-63
2021/12/03 06:15:58;;;;;;;1.13;0.40;;;;;;;;;;5090909;28;20056;-63
2021/12/03 06:18:24;;;;;;;0.82;0.25;;;;;;;;;;5092470;28;20038;-63
2021/12/03 06:20:50;;;;;;;0.10;0.10;;;;;;;;;;5076472;28;20441;-63
2021/12/03 06:23:17;;;;;;;0.22;0.20;;;;;;;;;;5100030;28;20012;-63
2021/12/03 06:25:43;;;;;;;0.10;0.10;;;;;;;;;;5092554;28;20024;-63
2021/12/03 06:28:10;;;;;;;2.92;0.22;;;;;;;;;;5083597;28;20028;-63
2021/12/03 06:30:36;;;;;;;0.10;0.10;;;;;;;;;;5088229;28;20518;-63
2021/12/03 06:33:03;;;;;;;0.60;0.30;;;;;;;;;;5087939;28;20093;-63
2021/12/03 06:35:29;;;;;;;0.82;0.35;;;;;;;;;;5088233;28;20040;-63
2021/12/03 06:37:55;;;;;;;0.63;0.30;;;;;;;;;;5091266;28;20232;-63
2021/12/03 06:40:22;;;;;;;1.10;0.20;;;;;;;;;;5091686;28;20391;-63
2021/12/03 06:42:49;;;;;;;0.60;0.30;;;;;;;;;;5091922;28;20024;-63
2021/12/03 06:45:15;;;;;;;0.38;0.30;;;;;;;;;;5091104;28;20028;-63
2021/12/03 06:47:42;;;;;;;0.60;0.28;;;;;;;;;;5078997;28;20111;-63
2021/12/03 06:50:10;;;;;;;1.13;0.30;;;;;;;;;;5088560;28;20036;-63
2021/12/03 06:52:39;;;;;;;0.68;0.30;;;;;;;;;;5094502;28;20028;-63
2021/12/03 06:55:09;;;;;;;0.30;0.30;;;;;;;;;;5094314;28;20077;-63
2021/12/03 06:57:35;;;;;;;0.40;0.28;;;;;;;;;;5093792;28;20395;-63
2021/12/03 07:00:01;;;;;;;0.45;0.30;;;;;;;;;;5093550;28;20028;-63
2021/12/03 07:02:27;;;;;;;0.20;0.20;;;;;;;;;;5093276;28;20032;-63
2021/12/03 07:04:53;;;;;;;0.38;0.28;;;;;;;;;;5094067;28;20450;-63
2021/12/03 07:07:20;;;;;;;0.77;0.40;;;;;;;;;;5093387;28;20126;-63
2021/12/03 07:09:48;;;;;;;1.55;0.40;;;;;;;;;;5093862;28;20020;-63
2021/12/03 07:12:15;;;;;;;0.50;0.30;;;;;;;;;;5093141;28;20079;-63
2021/12/03 07:14:41;;;;;;;0.75;0.20;;;;;;;;;;5093846;28;20023;-63
2021/12/03 07:17:08;;;;;;;0.80;0.38;;;;;;;;;;5093468;28;20061;-63
2021/12/03 07:19:34;;;;;;;0.28;0.20;;;;;;;;;;5075408;28;20028;-63
2021/12/03 07:22:01;;;;;;;0.20;0.20;;;;;;;;;;5093426;28;20032;-63
2021/12/03 07:24:27;;;;;;;1.33;0.40;;;;;;;;;;5093158;28;20152;-63
2021/12/03 07:26:53;;;;;;;0.75;0.35;;;;;;;;;;5092386;28;20100;-63
2021/12/03 07:29:19;;;;;;;1.08;0.38;;;;;;;;;;5092916;28;20105;-63
2021/12/03 07:31:45;;;;;;;1.48;0.50;;;;;;;;;;5093074;28;20124;-63
2021/12/03 07:34:14;;;;;;;1.83;0.40;;;;;;;;;;5092858;28;20024;-63
2021/12/03 07:36:40;;;;;;;0.60;0.40;;;;;;;;;;5092888;28;20056;-63
2021/12/03 07:39:06;;;;;;;1.40;0.45;;;;;;;;;;5093222;28;20032;-63
2021/12/03 07:41:35;;;;;;;2.95;0.50;;;;;;;;;;5092474;28;20032;-64
2021/12/03 07:44:01;;;;;;;0.82;0.45;;;;;;;;;;5093137;28;20016;-64
2021/12/03 07:46:27;;;;;;;0.82;0.60;;;;;;;;;;5092397;28;20032;-64
2021/12/03 07:48:54;;;;;;;0.95;0.68;;;;;;;;;;5092936;28;20073;-64
2021/12/03 07:51:20;;;;;;;1.13;0.90;;;;;;;;;;5074139;28;20037;-64
2021/12/03 07:53:46;;;;;;;1.20;0.80;;;;;;;;;;5073563;28;20046;-64
2021/12/03 07:56:12;;;;;;;3.65;1.10;;;;;;;;;;5092568;28;20027;-64
2021/12/03 07:58:38;;;;;;;2.63;1.25;;;;;;;;;;5077554;28;20029;-64
2021/12/03 08:01:05;;;;;;;3.20;1.15;;;;;;;;;;5072543;28;20036;-64
2021/12/03 08:03:31;;;;;;;2.45;1.27;;;;;;;;;;5072075;28;20024;-64
2021/12/03 08:06:03;;;;;;;5.22;1.98;;;;;;;;;;5072541;28;20061;-64
2021/12/03 08:08:31;;;;;;;3.92;1.60;;;;;;;;;;5072009;28;20072;-64
2021/12/03 08:10:57;;;;;;;3.63;1.40;;;;;;;;;;5072312;28;20024;-64
2021/12/03 08:13:23;;;;;;;3.83;1.60;;;;;;;;;;5071903;28;20020;-64
2021/12/03 08:15:49;;;;;;;7.63;1.85;;;;;;;;;;5072385;28;20028;-64
2021/12/03 08:18:15;;;;;;;5.57;1.90;;;;;;;;;;5071953;28;20399;-64
2021/12/03 08:20:42;;;;;;;3.70;2.10;;;;;;;;;;5072133;28;20446;-64
2021/12/03 08:23:08;;;;;;;8.85;2.40;;;;;;;;;;5072020;28;20025;-64
2021/12/03 08:25:34;;;;;;;5.68;2.53;;;;;;;;;;5071700;28;20024;-64
2021/12/03 08:28:00;;;;;;;3.78;2.30;;;;;;;;;;5072088;28;20029;-64
2021/12/03 08:30:29;;;;;;;8.00;2.58;;;;;;;;;;5072671;28;20017;-64
2021/12/03 08:32:56;;;;;;;5.45;2.28;;;;;;;;;;5092048;28;20043;-64
2021/12/03 08:35:22;;;;;;;7.05;2.10;;;;;;;;;;5092161;28;20093;-64
2021/12/03 08:37:50;;;;;;;4.65;2.50;;;;;;;;;;5092203;28;20046;-64
2021/12/03 08:40:16;;;;;;;4.63;2.30;;;;;;;;;;5091421;28;20020;-64
2021/12/03 08:42:42;;;;;;;5.50;2.28;;;;;;;;;;5087440;28;20085;-64
2021/12/03 08:45:09;;;;;;;4.72;2.60;;;;;;;;;;5091554;28;20028;-64
2021/12/03 08:47:36;;;;;;;4.97;2.03;;;;;;;;;;5091729;28;20498;-64
2021/12/03 08:50:06;;;;;;;2.60;1.85;;;;;;;;;;5092318;28;20035;-64
2021/12/03 08:55:31;;;;;;;3.53;1.80;;;;;;;;;;5049111;28;20069;-70
2021/12/03 08:57:57;;;;;;;5.93;2.28;;;;;;;;;;5029967;28;20040;-64
2021/12/03 09:00:23;;;;;;;6.32;1.80;;;;;;;;;;5029486;28;20091;-64
2021/12/03 09:02:50;;;;;;;5.28;1.58;;;;;;;;;;5054561;28;20021;-64
2021/12/03 09:05:16;;;;;;;5.18;1.25;;;;;;;;;;5049209;28;20052;-64
2021/12/03 09:07:42;;;;;;;3.35;1.42;;;;;;;;;;5041106;28;20080;-64
2021/12/03 09:10:11;;;;;;;4.85;1.17;;;;;;;;;;5044612;28;20029;-64
2021/12/03 09:12:37;;;;;;;3.80;1.00;;;;;;;;;;5048484;28;20077;-64
2021/12/03 09:15:08;;;;;;;0.93;0.80;;;;;;;;;;5048754;28;20103;-64
2021/12/03 09:20:43;;;;;;;2.70;0.90;;;;;;;;;;5048978;28;20029;-64
2021/12/03 09:22:57;;;;;;;0.80;0.60;;;;;;;;;;5049970;28;20440;-64
2021/12/03 09:25:31;;;;;;;2.20;0.90;;;;;;;;;;5069239;28;20048;-64
2021/12/03 09:27:59;;;;;;;2.30;1.00;;;;;;;;;;5053021;28;20049;-64
2021/12/03 09:30:28;;;;;;;1.50;0.80;;;;;;;;;;5058685;28;20044;-64
2021/12/03 09:32:57;;;;;;;2.97;0.95;;;;;;;;;;5091800;28;20165;-64
2021/12/03 09:35:24;;;;;;;1.73;0.80;;;;;;;;;;5091492;28;20127;-64
2021/12/03 09:37:50;;;;;;;1.67;0.98;;;;;;;;;;5090095;28;20023;-64
2021/12/03 09:40:20;;;;;;;1.33;1.05;;;;;;;;;;5091610;28;20024;-64
2021/12/03 09:42:52;;;;;;;1.77;1.10;;;;;;;;;;5091693;28;20036;-64
2021/12/03 09:45:18;;;;;;;2.50;0.80;;;;;;;;;;5091516;28;20501;-64
2021/12/03 09:47:45;;;;;;;4.43;1.05;;;;;;;;;;5091580;28;20103;-64
2021/12/03 09:50:13;;;;;;;3.08;0.75;;;;;;;;;;5090806;28;20108;-65
2021/12/03 09:55:14;;;;;;;1.92;1.02;;;;;;;;;;5094557;28;20032;-65
2021/12/03 09:58:02;;;;;;;0.95;0.63;;;;;;;;;;5094442;28;20024;-65
2021/12/03 10:00:36;;;;;;;4.25;1.02;;;;;;;;;;5094879;28;20423;-65
2021/12/03 10:14:05;;;;;;;1.92;0.80;;;;;;;;;;5094522;28;20039;-65
2021/12/03 10:16:42;;;;;;;1.95;0.70;;;;;;;;;;5094467;28;20479;-65
2021/12/03 10:19:33;;;;;;;1.40;0.63;;;;;;;;;;5092795;28;20098;-65
2021/12/03 10:23:17;;;;;;;3.03;0.70;;;;;;;;;;5094486;28;20040;-65
2021/12/03 10:30:13;;;;;;;;;;;;;;;;;;5094346;28;20028;-65
2021/12/03 10:33:00;;;;;;;0.73;0.55;;;;;;;;;;5094118;28;19915;-65
2021/12/03 10:41:12;;;;;;;0.68;0.30;;;;;;;;;;5094178;28;20051;-65
2021/12/03 10:43:52;;;;;;;0.45;0.40;;;;;;;;;;5083443;28;20173;-65
2021/12/03 10:51:48;;;;;;;1.25;0.40;;;;;;;;;;5093516;28;20032;-65
2021/12/03 11:00:16;;;;;;;1.92;0.40;;;;;;;;;;5093436;28;20059;-65
2021/12/03 11:47:16;;;;;;;5.57;1.23;;;;;;;;;;4925524;29;20431;-65
2021/12/03 11:53:40;;;;;;;9.90;1.25;;;;;;;;;;4883430;29;19911;-65
2021/12/03 14:05:11;;;;;;;17.42;2.65;;;;;;;;;;5096779;28;20039;-64
2021/12/03 14:57:06;;;;;;;33.60;5.40;;;;;;;;;;5044298;28;20045;-64
2021/12/03 14:59:33;;;;;;;92.63;9.35;;;;;;;;;;5037561;28;20056;-64
2021/12/03 15:07:22;;;;;;;9.57;0.90;;;;;;;;;;5038277;28;20029;-64
2021/12/03 15:09:50;;;;;;;22.13;3.28;;;;;;;;;;5042907;28;20076;-64
2021/12/03 15:31:07;;;;;;;23.00;3.63;;;;;;;;;;5035341;28;20116;-64
2021/12/03 15:36:06;;;;;;;20.90;3.42;;;;;;;;;;5032804;28;20102;-64
2021/12/03 15:38:45;;;;;;;30.00;4.57;;;;;;;;;;5033788;28;20037;-64
2021/12/03 16:10:40;;;;;;;32.38;5.80;;;;;;;;;;5087010;28;20472;-64
2021/12/03 16:16:14;;;;;;;32.38;4.68;;;;;;;;;;5085561;28;20522;-64
2021/12/03 16:24:32;;;;;;;30.27;5.60;;;;;;;;;;5084120;28;20035;-64
2021/12/03 16:54:05;;;;;;;16.35;4.22;;;;;;;;;;5084611;28;20028;-64
2021/12/03 16:56:32;;;;;;;14.90;3.95;;;;;;;;;;5083805;28;20035;-64
2021/12/03 16:58:59;;;;;;;17.85;5.07;;;;;;;;;;5082460;28;20028;-64
2021/12/03 17:56:45;;;;;;;14.77;2.67;;;;;;;;;;5087495;28;20557;-64
2021/12/03 18:01:48;;;;;;;9.88;2.75;;;;;;;;;;5087971;28;20059;-64
2021/12/03 18:04:25;;;;;;;11.32;3.10;;;;;;;;;;5087706;28;20080;-64
2021/12/03 18:12:26;;;;;;;10.57;3.33;;;;;;;;;;5012971;28;20052;-64
2021/12/03 18:58:02;;;;;;;5.15;1.60;;;;;;;;;;5084344;28;20742;-65
2021/12/03 19:00:30;;;;;;;4.40;1.30;;;;;;;;;;5086701;28;20062;-65
2021/12/03 19:02:59;;;;;;;6.80;1.70;;;;;;;;;;5086577;28;20036;-65
2021/12/03 19:10:28;;;;;;;6.90;1.80;;;;;;;;;;5086042;28;20123;-65
2021/12/03 19:13:05;;;;;;;6.43;1.73;;;;;;;;;;5084751;28;20408;-65
2021/12/03 19:15:32;;;;;;;8.88;1.88;;;;;;;;;;5088365;28;20028;-65
2021/12/03 19:18:02;;;;;;;11.40;2.53;;;;;;;;;;5084217;28;20028;-65
2021/12/03 19:20:32;;;;;;;9.05;2.22;;;;;;;;;;5084547;28;20413;-64
2021/12/03 19:22:58;;;;;;;11.02;1.67;;;;;;;;;;5084126;28;20024;-65
2021/12/03 19:25:24;;;;;;;7.07;1.73;;;;;;;;;;5087808;28;20024;-65
2021/12/03 19:27:51;;;;;;;8.07;1.80;;;;;;;;;;5086073;28;20085;-65
2021/12/03 19:30:17;;;;;;;12.55;3.47;;;;;;;;;;5081258;28;20035;-64
2021/12/03 19:32:44;;;;;;;8.93;2.17;;;;;;;;;;5085311;28;20387;-65
2021/12/03 19:35:10;;;;;;;14.20;3.00;;;;;;;;;;5086353;28;20104;-65
2021/12/03 19:37:37;;;;;;;10.45;2.10;;;;;;;;;;5083149;28;20035;-65
2021/12/03 19:40:07;;;;;;;15.00;2.95;;;;;;;;;;5087205;28;20028;-64
2021/12/03 19:42:38;;;;;;;5.47;2.15;;;;;;;;;;5088444;28;20098;-64
2021/12/03 19:45:07;;;;;;;9.32;2.30;;;;;;;;;;5085032;28;20033;-64
2021/12/03 19:47:50;;;;;;;13.90;2.63;;;;;;;;;;5087458;28;20044;-64
2021/12/03 19:50:59;;;;;;;11.50;3.08;;;;;;;;;;5080316;28;20396;-64
2021/12/03 19:55:40;;;;;;;19.65;3.83;;;;;;;;;;5087500;28;20033;-64
2021/12/03 19:58:07;;;;;;;13.35;4.40;;;;;;;;;;5082056;28;20035;-64
2021/12/03 20:00:33;;;;;;;21.50;3.60;;;;;;;;;;5080233;28;20084;-64
2021/12/03 20:02:59;;;;;;;19.30;3.90;;;;;;;;;;5083233;28;20441;-64
2021/12/03 20:05:26;;;;;;;21.25;4.05;;;;;;;;;;5086613;28;20024;-64
2021/12/03 20:07:53;;;;;;;21.02;3.03;;;;;;;;;;5081324;28;20046;-64
2021/12/03 20:10:22;;;;;;;15.57;3.47;;;;;;;;;;5067968;28;20024;-65
2021/12/03 20:12:49;;;;;;;21.67;4.45;;;;;;;;;;5082519;28;20020;-65
2021/12/03 20:15:25;;;;;;;19.80;4.25;;;;;;;;;;5082156;28;20025;-64
2021/12/03 20:17:56;;;;;;;18.90;4.60;;;;;;;;;;5084143;28;20032;-65
2021/12/03 20:20:24;;;;;;;16.75;4.50;;;;;;;;;;5080538;28;20029;-64
2021/12/03 20:23:00;;;;;;;25.42;6.20;;;;;;;;;;5085552;28;20020;-64
2021/12/03 20:25:52;;;;;;;26.73;4.47;;;;;;;;;;5079532;28;20122;-65
2021/12/03 20:31:26;;;;;;;34.10;4.80;;;;;;;;;;5007285;28;20545;-65
2021/12/03 20:37:14;;;;;;;25.40;4.40;;;;;;;;;;4949576;28;20070;-65
2021/12/03 20:39:39;;;;;;;29.65;6.10;;;;;;;;;;4946344;29;21447;-65
2021/12/03 21:08:44;;;;;;;29.48;4.70;;;;;;;;;;5006389;28;20038;-65
2021/12/03 21:13:47;;;;;;;21.10;3.38;;;;;;;;;;5043162;28;20048;-64
2021/12/03 21:21:35;;;;;;;22.38;3.72;;;;;;;;;;5086462;28;20410;-64
2021/12/03 21:24:05;;;;;;;22.80;3.08;;;;;;;;;;5086633;28;20547;-64
2021/12/03 21:26:32;;;;;;;16.95;2.83;;;;;;;;;;5083574;28;20090;-64
2021/12/03 21:31:32;;;;;;;15.63;3.30;;;;;;;;;;5085560;28;20046;-64
2021/12/03 21:39:42;;;;;;;18.10;2.45;;;;;;;;;;5083246;28;20047;-64
2021/12/03 21:42:08;;;;;;;14.75;2.17;;;;;;;;;;5084968;28;20111;-64
2021/12/03 21:44:34;;;;;;;10.88;2.10;;;;;;;;;;5085086;28;20116;-64
2021/12/03 21:47:00;;;;;;;12.02;2.33;;;;;;;;;;5089717;28;20108;-64
2021/12/03 21:49:28;;;;;;;14.32;2.53;;;;;;;;;;5088044;28;20035;-65
2021/12/03 21:51:55;;;;;;;20.50;2.67;;;;;;;;;;5087060;28;20059;-65
2021/12/03 21:54:21;;;;;;;13.88;1.95;;;;;;;;;;5083611;28;20103;-65
2021/12/03 21:56:48;;;;;;;13.45;2.60;;;;;;;;;;5084375;28;20121;-64
2021/12/03 21:59:15;;;;;;;12.77;3.33;;;;;;;;;;5081047;28;20028;-65
2021/12/03 22:01:41;;;;;;;19.60;2.55;;;;;;;;;;5084260;28;20487;-65
2021/12/03 22:04:07;;;;;;;27.05;3.17;;;;;;;;;;5082235;28;20098;-65
2021/12/03 22:06:35;;;;;;;12.15;2.20;;;;;;;;;;5084251;28;20028;-65
2021/12/03 22:09:01;;;;;;;14.77;3.20;;;;;;;;;;5084433;28;20020;-65
2021/12/03 22:11:28;;;;;;;14.85;2.60;;;;;;;;;;5096857;28;20502;-62
2021/12/03 22:13:54;;;;;;;22.00;3.10;;;;;;;;;;5084412;28;20036;-62
2021/12/03 22:16:21;;;;;;;14.60;2.38;;;;;;;;;;5088846;28;20024;-63
2021/12/03 22:18:48;;;;;;;18.13;2.92;;;;;;;;;;5082079;28;20108;-63
2021/12/03 22:21:15;;;;;;;11.15;2.42;;;;;;;;;;5086831;28;20024;-62
2021/12/03 22:23:44;;;;;;;13.43;2.00;;;;;;;;;;5085078;28;20052;-62
2021/12/03 22:26:11;;;;;;;17.50;2.92;;;;;;;;;;5082124;28;20020;-62
2021/12/03 22:28:38;;;;;;;13.10;3.17;;;;;;;;;;5084617;28;20095;-62
2021/12/03 22:31:05;;;;;;;17.52;4.97;;;;;;;;;;5084956;28;20032;-62
2021/12/03 22:33:31;;;;;;;10.70;2.40;;;;;;;;;;5079973;28;20037;-63
2021/12/03 22:35:57;;;;;;;11.20;2.78;;;;;;;;;;5089353;28;20617;-62
2021/12/03 22:38:24;;;;;;;20.27;2.13;;;;;;;;;;5079253;28;20024;-62
2021/12/03 22:40:50;;;;;;;13.40;2.40;;;;;;;;;;5090555;28;20395;-62
2021/12/03 22:43:17;;;;;;;11.80;1.98;;;;;;;;;;5103703;28;20028;-63
2021/12/03 22:48:35;;;;;;;10.75;2.33;;;;;;;;;;5088782;28;20518;-62
2021/12/03 22:53:49;;;;;;;8.60;1.70;;;;;;;;;;5006673;28;20050;-63
2021/12/03 22:56:16;;;;;;;11.07;1.85;;;;;;;;;;5010746;28;20108;-63
2021/12/03 22:58:42;;;;;;;9.25;2.03;;;;;;;;;;5011713;28;20112;-62
2021/12/03 23:01:19;;;;;;;13.00;2.70;;;;;;;;;;5011039;28;20156;-62
2021/12/03 23:03:46;;;;;;;16.77;2.08;;;;;;;;;;5011805;28;20461;-62
2021/12/03 23:06:12;;;;;;;13.82;2.35;;;;;;;;;;5010958;28;20125;-63
2021/12/03 23:08:38;;;;;;;20.52;2.85;;;;;;;;;;5011867;28;20038;-62
2021/12/03 23:11:04;;;;;;;11.20;2.20;;;;;;;;;;5020051;28;20409;-62
2021/12/03 23:13:31;;;;;;;11.90;2.30;;;;;;;;;;5011148;28;20038;-63
2021/12/03 23:15:57;;;;;;;11.75;2.40;;;;;;;;;;5010875;28;20042;-63
2021/12/03 23:18:24;;;;;;;14.85;2.80;;;;;;;;;;5011070;28;20069;-63
2021/12/03 23:20:52;;;;;;;17.83;2.10;;;;;;;;;;5011282;28;20425;-63
2021/12/03 23:23:22;;;;;;;11.07;2.65;;;;;;;;;;5010867;28;20045;-63
2021/12/03 23:25:50;;;;;;;14.07;2.20;;;;;;;;;;5014516;28;20072;-63
2021/12/03 23:28:18;;;;;;;8.05;2.15;;;;;;;;;;5012811;28;20398;-62
2021/12/03 23:30:44;;;;;;;15.40;2.40;;;;;;;;;;5046379;28;20119;-62
2021/12/03 23:33:14;;;;;;;25.27;4.63;;;;;;;;;;5092969;28;20074;-62